Ana Sayfa
METAR-TAF:

METAR-TAF

Havaalanları :

Phillip Goldston

Belize City, Belize

Enlem: 17-32N, Boylam: 088-18W, yükseklik: 5 m

Güncel hava durumu gözlemi

Rapor saat 01:00 UTC de 3 saat ve 42 dakika önce yapıldı.
Rüzgar doğudan 6 kt
Sıcaklık 28°C
Nem 84%
Basınç 1013 hPa
Görüş mesafesi 10 km veya daha fazla
1900 ft yükseklikte az bulutlu

METAR: MZBZ 190100Z 09006KT 9999 FEW019 28/25 A2993 Q1013 NOSIG

Saat: 22:42 (04:42 UTC)

Tahmin

Rapor saat 21:00 UTC de 7 saat ve 42 dakika önce yapıldı.
Ayın 19'si saat 00 UTC'den ayın 19'si saat 24 UTC'ye kadar geçerli Tahmin
Rüzgar doğu/güneydoğudan 10 kt
Görüş mesafesi 10 km veya daha fazla
2300 ft yükseklikte parçalı bulutlu

TAF: MZBZ 182100Z 1900/1924 12010KT 9999 SCT023

4.000'den fazla havaalanı için hava durumu gözlemleri ve tahminleri (METAR ve TAF raporları).

Kullanılabilir istasyonlar harita üzerinde sarı ve kırmızı noktalarla gösterilir.

İstasyonun adını görmek için fareyi noktanın üzerinde gezdirin.

Sonrasında hava gözlem ve tahminlerini görmek için tıklayın.

Haritayı değiştirmek için: yaklaştırmak için siyah artı işaretli yeşil düğmeye ve uzaklaştırmak için de eksi işaretli düğmeye hızla tıklayın; bitişik haritalar için yeşil okları kullanın.


METAR-TAF: